Time;durP1;ratioP1;P1;durP2;ratioP2;P2;SDS_P1;SDS_P2;PMS_P1;PMS_P2;Temp;Humidity;BMP_temperature;BMP_pressure;BME280_temperature;BME280_humidity;BME280_pressure;Samples;Min_cycle;Max_cycle;Signal;HPM_P1;HPM_P2
2022/01/26 00:00:20;;;;;;;14.05;10.15;;;;;;;15.67;41.18;94357.59;4880600;29;20041;-86
2022/01/26 00:05:49;;;;;;;15.45;10.25;;;;;;;15.58;41.50;94354.97;4896156;29;20420;-86
2022/01/26 00:08:14;;;;;;;16.45;10.07;;;;;;;15.55;41.33;94358.63;4897385;29;20036;-86
2022/01/26 00:10:40;;;;;;;18.08;13.63;;;;;;;15.56;41.39;94349.25;4910516;29;20060;-86
2022/01/26 00:13:05;;;;;;;15.35;10.73;;;;;;;15.56;41.48;94360.91;4913259;28;20028;-87
2022/01/26 00:15:31;;;;;;;15.68;11.15;;;;;;;15.57;41.47;94359.69;4901522;29;20407;-87
2022/01/26 00:17:57;;;;;;;16.02;11.75;;;;;;;15.58;41.26;94360.44;4917428;29;20039;-87
2022/01/26 00:20:33;;;;;;;16.80;10.95;;;;;;;15.58;41.44;94352.25;4882520;29;20048;-87
2022/01/26 00:23:10;;;;;;;15.68;10.90;;;;;;;15.59;41.57;94351.75;4900578;29;20074;-86
2022/01/26 00:38:36;;;;;;;12.40;8.48;;;;;;;15.57;41.49;94359.69;4918894;29;20102;-87
2022/01/26 00:41:07;;;;;;;19.65;12.27;;;;;;;15.57;41.78;94353.47;4917730;29;20047;-87
2022/01/26 00:43:33;;;;;;;;;;;;;;;15.57;41.25;94350.75;4901998;29;20044;-87
2022/01/26 00:46:00;;;;;;;13.13;9.43;;;;;;;15.52;41.30;94354.09;4917405;29;19918;-87
2022/01/26 00:48:26;;;;;;;11.30;7.50;;;;;;;15.51;41.25;94347.13;4912784;29;20128;-87
2022/01/26 00:50:53;;;;;;;12.23;8.40;;;;;;;15.51;41.34;94342.44;4897996;29;20044;-87
2022/01/26 00:53:23;;;;;;;19.58;9.88;;;;;;;15.54;41.33;94340.75;4912690;29;20047;-86
2022/01/26 00:55:48;;;;;;;14.25;9.05;;;;;;;15.62;41.35;94342.66;4913635;29;20036;-87
2022/01/26 00:58:14;;;;;;;15.45;11.07;;;;;;;15.57;41.36;94339.84;4897135;29;20033;-86
2022/01/26 01:00:40;;;;;;;12.10;7.88;;;;;;;15.53;41.27;94339.25;4897982;29;20043;-87
2022/01/26 01:03:06;;;;;;;14.07;9.73;;;;;;;15.56;41.08;94339.09;4913130;29;20051;-87
2022/01/26 01:05:38;;;;;;;13.80;7.82;;;;;;;15.61;41.21;94343.88;4913504;29;20059;-87
2022/01/26 01:08:09;;;;;;;17.60;12.10;;;;;;;15.57;41.18;94334.41;4898120;29;20092;-87
2022/01/26 01:10:34;;;;;;;16.75;13.20;;;;;;;15.54;41.27;94340.75;4898510;29;20508;-86
2022/01/26 01:13:00;;;;;;;12.07;9.18;;;;;;;15.59;41.12;94340.13;4914964;29;20078;-87
2022/01/26 01:15:27;;;;;;;12.45;9.50;;;;;;;15.57;41.32;94332.44;4935080;28;20043;-87
2022/01/26 01:17:57;;;;;;;14.10;9.80;;;;;;;15.57;41.16;94342.56;4905436;29;20088;-87
2022/01/26 01:20:40;;;;;;;13.98;9.73;;;;;;;15.54;41.55;94335.31;4901939;29;20046;-87
2022/01/26 01:31:02;;;;;;;15.20;10.83;;;;;;;15.55;41.41;94334.09;4918644;29;20046;-87
2022/01/26 01:33:32;;;;;;;11.05;7.75;;;;;;;15.54;41.33;94332.59;4916540;29;20274;-86
2022/01/26 01:35:59;;;;;;;10.52;8.18;;;;;;;15.54;41.31;94327.88;4916625;29;20044;-86
2022/01/26 01:38:27;;;;;;;11.02;8.43;;;;;;;15.60;41.05;94333.44;4914680;29;20042;-87
2022/01/26 01:40:53;;;;;;;11.73;7.63;;;;;;;15.57;41.32;94332.44;4900648;29;20039;-87
2022/01/26 01:43:19;;;;;;;15.35;10.23;;;;;;;15.53;41.68;94337.28;4891448;28;20043;-87
2022/01/26 01:45:48;;;;;;;13.95;8.48;;;;;;;15.57;41.57;94328.94;4900387;29;20487;-87
2022/01/26 01:48:17;;;;;;;10.23;7.75;;;;;;;15.54;41.11;94333.34;4895741;29;20821;-86
2022/01/26 01:50:43;;;;;;;14.63;9.85;;;;;;;15.53;41.66;94333.81;4872599;29;20526;-86
2022/01/26 01:53:09;;;;;;;19.38;14.07;;;;;;;15.50;41.46;94330.03;4912235;29;20040;-86
2022/01/26 01:55:38;;;;;;;14.05;9.75;;;;;;;15.51;41.46;94326.09;4896632;29;20562;-87
2022/01/26 01:58:03;;;;;;;11.73;7.97;;;;;;;15.60;41.31;94320.56;4911861;29;20048;-86
2022/01/26 02:00:29;;;;;;;10.43;7.32;;;;;;;15.55;41.33;94329.38;4912400;29;20044;-86
2022/01/26 02:02:54;;;;;;;13.10;8.73;;;;;;;15.53;41.32;94326.38;4912201;29;20416;-87
2022/01/26 02:05:19;;;;;;;14.50;9.70;;;;;;;15.52;41.49;94332.28;4911873;29;20052;-87
2022/01/26 02:07:45;;;;;;;8.88;6.95;;;;;;;15.54;41.47;94327.13;4914377;29;20050;-86
2022/01/26 02:10:11;;;;;;;10.00;7.45;;;;;;;15.55;41.19;94323.19;4911130;28;20147;-87
2022/01/26 02:12:41;;;;;;;10.75;7.85;;;;;;;15.57;41.42;94320.78;4933009;29;20039;-87
2022/01/26 02:15:14;;;;;;;12.57;8.48;;;;;;;15.55;41.80;94323.19;4907608;28;20415;-86
2022/01/26 02:20:50;;;;;;;11.68;8.80;;;;;;;15.50;41.37;94313.69;4951001;28;20138;-87
2022/01/26 02:51:10;;;;;;;11.70;7.07;;;;;;;15.55;41.46;94293.97;4917156;29;20413;-86
2022/01/26 02:56:07;;;;;;;10.23;7.10;;;;;;;15.59;41.31;94291.06;4916137;29;20547;-86
2022/01/26 03:01:38;;;;;;;12.95;7.00;;;;;;;15.60;40.78;94289.81;4929232;28;20039;-86
2022/01/26 03:06:43;;;;;;;11.57;8.45;;;;;;;15.53;41.66;94285.50;4900598;29;20114;-87
2022/01/26 03:09:13;;;;;;;9.57;6.65;;;;;;;15.53;41.32;94288.22;4900289;28;20058;-87
2022/01/26 03:11:40;;;;;;;10.25;7.82;;;;;;;15.51;41.44;94296.13;4915095;29;20658;-86
2022/01/26 03:14:17;;;;;;;16.10;10.80;;;;;;;15.52;41.25;94285.97;4914461;29;20445;-87
2022/01/26 03:16:48;;;;;;;11.15;7.93;;;;;;;15.55;41.56;94287.75;4921622;29;20043;-86
2022/01/26 03:19:22;;;;;;;9.55;6.78;;;;;;;15.55;41.28;94282.31;4948905;28;20498;-86
2022/01/26 03:22:13;;;;;;;10.32;7.00;;;;;;;15.59;40.97;94274.72;4919352;29;20589;-86
2022/01/26 03:30:05;;;;;;;10.25;7.18;;;;;;;15.51;41.38;94276.28;4922687;29;20054;-87
2022/01/26 03:35:13;;;;;;;10.18;6.82;;;;;;;15.57;41.07;94279.91;4948422;28;20053;-87
2022/01/26 03:37:39;;;;;;;9.48;6.50;;;;;;;15.54;41.27;94278.81;4934460;28;20561;-86
2022/01/26 03:40:12;;;;;;;9.45;6.65;;;;;;;15.54;41.19;94281.56;4917378;28;20491;-86
2022/01/26 03:42:38;;;;;;;13.18;8.85;;;;;;;15.59;41.18;94283.63;4909929;29;20324;-86
2022/01/26 03:45:03;;;;;;;7.55;5.80;;;;;;;15.59;41.10;94283.63;4913819;28;20051;-86
2022/01/26 03:47:29;;;;;;;9.85;6.97;;;;;;;15.55;41.18;94288.50;4898468;29;20040;-87
2022/01/26 03:49:54;;;;;;;15.15;10.32;;;;;;;15.51;41.62;94290.66;4898557;29;20036;-87
2022/01/26 03:52:20;;;;;;;11.68;7.28;;;;;;;15.54;41.06;94286.25;4882011;28;20455;-87
2022/01/26 03:54:45;;;;;;;10.95;7.43;;;;;;;15.63;41.20;94278.75;4898834;29;20052;-87
2022/01/26 03:57:10;;;;;;;11.38;6.55;;;;;;;15.57;41.21;94277.91;4913500;28;20040;-86
2022/01/26 03:59:36;;;;;;;12.32;8.52;;;;;;;15.58;40.95;94273.97;4898883;29;20036;-86
2022/01/26 04:02:02;;;;;;;8.13;5.80;;;;;;;15.54;41.31;94276.09;4898447;29;20044;-87
2022/01/26 04:04:31;;;;;;;8.05;5.88;;;;;;;15.56;41.16;94279.16;4910775;28;20047;-87
2022/01/26 04:06:59;;;;;;;13.50;9.55;;;;;;;15.57;41.26;94279.91;4895800;29;20036;-87
2022/01/26 04:09:24;;;;;;;10.68;7.47;;;;;;;15.57;40.97;94288.81;4910560;28;20063;-87
2022/01/26 04:11:52;;;;;;;11.57;8.25;;;;;;;15.55;41.09;94282.31;4920583;28;20032;-86
2022/01/26 04:14:26;;;;;;;12.10;8.55;;;;;;;15.49;41.36;94278.72;4933228;28;20110;-87
2022/01/26 04:16:51;;;;;;;8.70;6.70;;;;;;;15.52;40.81;94281.28;4913125;29;20044;-87
2022/01/26 04:19:18;;;;;;;9.10;6.78;;;;;;;15.55;41.29;94279.59;4914150;29;20115;-87
2022/01/26 04:26:49;;;;;;;13.35;8.43;;;;;;;15.51;41.22;94279.78;4914734;29;20044;-86
2022/01/26 04:29:24;;;;;;;7.72;5.93;;;;;;;15.52;41.35;94267.66;4900390;29;20051;-87
2022/01/26 04:31:49;;;;;;;11.52;7.85;;;;;;;15.50;41.40;94280.25;4914284;29;20040;-87
2022/01/26 04:34:15;;;;;;;10.10;6.38;;;;;;;15.49;41.05;94279.47;4898314;29;20420;-86
2022/01/26 04:36:52;;;;;;;10.68;7.05;;;;;;;15.56;41.05;94283.84;4898995;29;20055;-86
2022/01/26 04:39:23;;;;;;;9.60;6.75;;;;;;;15.50;41.15;94270.09;4913654;29;20063;-87
2022/01/26 04:41:54;;;;;;;11.10;7.22;;;;;;;15.51;41.10;94276.28;4929304;29;20103;-87
2022/01/26 04:44:25;;;;;;;;;;;;;;;15.51;41.10;94282.50;4914190;28;20044;-87
2022/01/26 04:46:51;;;;;;;;;;;;;;;15.53;41.20;94274.59;4899727;29;19923;-87
2022/01/26 04:49:16;;;;;;;13.48;9.13;;;;;;;15.48;41.12;94272.53;4910961;29;19923;-87
2022/01/26 04:51:42;;;;;;;9.15;6.15;;;;;;;15.51;41.18;94268.13;4864404;29;20044;-87
2022/01/26 04:54:07;;;;;;;10.73;6.72;;;;;;;15.49;41.09;94279.47;4864382;29;20048;-86
2022/01/26 04:56:34;;;;;;;8.82;6.18;;;;;;;15.47;41.29;94275.72;4867108;29;20041;-87
2022/01/26 04:58:59;;;;;;;14.82;9.88;;;;;;;15.44;41.66;94271.97;4906583;29;20052;-87
2022/01/26 05:01:25;;;;;;;9.63;5.90;;;;;;;15.47;41.28;94276.47;4932105;28;20212;-87
2022/01/26 05:03:50;;;;;;;15.45;10.23;;;;;;;15.46;41.32;94274.22;4922673;28;20071;-87
2022/01/26 05:06:16;;;;;;;10.88;8.18;;;;;;;15.47;41.93;94281.94;4913624;29;20036;-87
2022/01/26 05:08:41;;;;;;;9.75;7.30;;;;;;;15.53;41.22;94274.59;4913851;29;20040;-86
2022/01/26 05:11:09;;;;;;;8.75;5.38;;;;;;;15.54;41.21;94287.00;4913289;29;20059;-86
2022/01/26 05:13:35;;;;;;;15.73;10.30;;;;;;;15.48;41.04;94282.69;4914057;29;20043;-87
2022/01/26 05:16:01;;;;;;;10.82;7.22;;;;;;;15.53;41.08;94277.31;4923747;28;20031;-87
2022/01/26 05:18:27;;;;;;;16.15;11.45;;;;;;;15.54;41.20;94281.56;4898214;29;20043;-87
2022/01/26 05:20:53;;;;;;;13.60;8.55;;;;;;;15.51;41.26;94282.50;4897788;29;20036;-87
2022/01/26 05:23:19;;;;;;;9.55;5.97;;;;;;;15.52;40.99;94277.78;4914352;29;20067;-87
2022/01/26 05:25:52;;;;;;;9.15;5.72;;;;;;;15.54;41.22;94288.97;4905171;29;20029;-87
2022/01/26 05:28:17;;;;;;;8.63;5.85;;;;;;;15.54;41.21;94284.28;4929317;29;20051;-86
2022/01/26 05:30:42;;;;;;;11.25;6.22;;;;;;;15.52;41.09;94275.06;4910193;29;20045;-87
2022/01/26 05:33:08;;;;;;;10.73;6.78;;;;;;;15.61;41.66;94274.97;4904619;28;20136;-88
2022/01/26 05:35:33;;;;;;;8.10;5.80;;;;;;;15.56;41.32;94270.97;4882426;29;20416;-84
2022/01/26 05:37:59;;;;;;;14.45;9.93;;;;;;;15.55;41.28;94274.13;4879648;29;20462;-85
2022/01/26 05:40:25;;;;;;;10.20;6.18;;;;;;;15.71;41.47;94268.97;4930679;28;20072;-86
2022/01/26 05:42:50;;;;;;;210.82;184.32;;;;;;;15.81;41.87;94268.84;4899722;29;20115;-85
2022/01/26 05:45:23;;;;;;;10.75;7.97;;;;;;;15.73;41.61;94261.06;4898044;28;20083;-85
2022/01/26 05:47:49;;;;;;;20.10;12.27;;;;;;;15.63;41.29;94270.56;4896090;29;20575;-85
2022/01/26 05:50:14;;;;;;;69.53;29.20;;;;;;;15.81;41.27;94263.38;4896507;29;20417;-84
2022/01/26 05:52:40;;;;;;;22.08;12.55;;;;;;;15.72;41.36;94275.16;4908912;29;20044;-85
2022/01/26 05:55:06;;;;;;;19.27;11.85;;;;;;;15.77;41.06;94278.00;4932464;28;20052;-86
2022/01/26 05:57:31;;;;;;;14.70;9.48;;;;;;;15.64;41.02;94287.66;4880139;29;20040;-85
2022/01/26 05:59:57;;;;;;;21.15;12.82;;;;;;;15.63;41.18;94286.91;4888404;29;20048;-85
2022/01/26 06:02:23;;;;;;;17.63;11.50;;;;;;;15.55;40.28;94279.59;4894656;28;20050;-85
2022/01/26 06:04:48;;;;;;;19.40;11.32;;;;;;;15.52;39.91;94292.16;4877848;29;20037;-85
2022/01/26 06:07:14;;;;;;;20.42;11.80;;;;;;;15.57;40.22;94286.09;4897086;28;20040;-85
2022/01/26 06:09:39;;;;;;;25.98;14.85;;;;;;;15.60;40.08;94285.13;4882527;29;20069;-85
2022/01/26 06:12:05;;;;;;;25.27;14.30;;;;;;;15.58;40.38;94287.59;4920213;29;20090;-85
2022/01/26 06:14:35;;;;;;;35.80;14.35;;;;;;;15.56;39.99;94290.03;4903049;29;20040;-86
2022/01/26 06:17:01;;;;;;;52.25;14.93;;;;;;;15.57;40.28;94288.81;4921762;28;20044;-86
2022/01/26 06:19:27;;;;;;;36.25;14.25;;;;;;;15.61;40.00;94291.34;4900550;29;20050;-87
2022/01/26 06:21:53;;;;;;;36.72;16.40;;;;;;;15.57;38.97;94296.25;4911845;28;20044;-85
2022/01/26 06:24:18;;;;;;;26.58;14.55;;;;;;;15.55;39.33;94287.75;4871632;28;20051;-84
2022/01/26 06:26:43;;;;;;;42.75;18.17;;;;;;;15.54;39.70;94297.91;4889563;29;20084;-84
2022/01/26 06:29:09;;;;;;;41.85;23.00;;;;;;;15.61;37.95;94294.81;4909502;28;20623;-85
2022/01/26 06:31:38;;;;;;;32.22;17.23;;;;;;;15.47;35.02;94284.66;4912472;29;20035;-88
2022/01/26 06:34:04;;;;;;;48.97;19.83;;;;;;;15.38;35.46;94298.34;4898999;28;20047;-87
2022/01/26 06:36:30;;;;;;;56.60;29.10;;;;;;;15.28;34.17;94299.69;4885947;29;20046;-88
2022/01/26 06:38:55;;;;;;;42.33;23.90;;;;;;;15.20;33.31;94301.25;4900369;29;20055;-89
2022/01/26 06:41:26;;;;;;;32.97;21.55;;;;;;;15.12;33.30;94294.69;4880261;29;20496;-87
2022/01/26 06:43:59;;;;;;;45.60;24.70;;;;;;;15.16;33.16;94293.25;4889036;29;20119;-86
2022/01/26 06:46:33;;;;;;;55.72;27.95;;;;;;;15.14;33.26;94303.16;4901631;28;20103;-90
2022/01/26 06:49:28;;;;;;;85.38;28.25;;;;;;;14.96;32.69;94302.06;4912909;28;20052;-89
2022/01/26 06:51:44;;;;;;;59.53;25.38;;;;;;;14.93;32.49;94294.09;4927306;28;20383;-89
2022/01/26 06:54:10;;;;;;;50.83;25.05;;;;;;;15.04;32.73;94291.56;4891590;28;20711;-88
2022/01/26 06:56:38;;;;;;;59.72;25.63;;;;;;;15.06;33.17;94297.31;4908118;29;20048;-87
2022/01/26 06:59:03;;;;;;;57.90;28.73;;;;;;;15.16;33.40;94285.09;4908608;28;20096;-88
2022/01/26 07:01:29;;;;;;;62.95;36.22;;;;;;;15.20;34.12;94279.47;4893166;29;20052;-86
2022/01/26 07:03:54;;;;;;;75.22;42.40;;;;;;;15.16;34.95;94282.38;4908916;29;20434;-86
2022/01/26 07:06:20;;;;;;;112.47;48.85;;;;;;;15.26;36.11;94285.78;4888884;28;20543;-85
2022/01/26 07:08:46;;;;;;;87.28;37.55;;;;;;;15.19;35.98;94286.13;4895751;29;20044;-87
2022/01/26 07:11:12;;;;;;;50.47;27.30;;;;;;;15.18;35.68;94288.09;4912531;28;20044;-87
2022/01/26 07:13:39;;;;;;;53.22;24.90;;;;;;;15.15;34.88;94297.25;4888710;29;20129;-87
2022/01/26 07:21:32;;;;;;;68.80;32.28;;;;;;;15.36;36.67;94303.53;4898464;28;20039;-90
2022/01/26 07:23:58;;;;;;;59.72;32.25;;;;;;;15.43;37.03;94295.72;4893631;29;20445;-89
2022/01/26 07:26:29;;;;;;;61.33;31.23;;;;;;;15.45;37.26;94292.53;4877694;29;20123;-90
2022/01/26 07:29:07;;;;;;;84.87;32.77;;;;;;;15.42;38.23;94293.47;4881698;29;20117;-91
2022/01/26 07:31:34;;;;;;;65.80;32.15;;;;;;;15.40;37.25;94285.03;4879705;29;20069;-88
2022/01/26 07:33:59;;;;;;;64.70;32.13;;;;;;;15.38;37.53;94285.47;4876168;29;20531;-87
2022/01/26 07:36:25;;;;;;;64.03;32.03;;;;;;;15.35;37.14;94297.34;4873803;29;20131;-88
2022/01/26 07:38:55;;;;;;;64.15;30.20;;;;;;;15.28;35.91;94305.13;4858646;29;20509;-87
2022/01/26 07:41:20;;;;;;;80.60;39.50;;;;;;;15.26;35.83;94296.66;4874763;29;20055;-87
2022/01/26 07:43:46;;;;;;;80.15;39.03;;;;;;;15.29;35.50;94299.22;4890087;29;20040;-87
2022/01/26 07:46:12;;;;;;;83.50;44.92;;;;;;;15.33;35.91;94297.06;4860366;29;20164;-87
2022/01/26 07:48:37;;;;;;;109.85;58.90;;;;;;;15.33;36.41;94299.78;4896021;29;20050;-87
2022/01/26 07:51:03;;;;;;;127.70;66.25;;;;;;;15.39;36.55;94303.34;4863496;29;20127;-87
2022/01/26 07:53:29;;;;;;;140.65;78.75;;;;;;;15.36;36.78;94303.53;4878263;29;20076;-89
2022/01/26 07:55:56;;;;;;;197.52;108.13;;;;;;;15.42;37.71;94290.75;4880563;29;20051;-89
2022/01/26 07:58:21;;;;;;;219.38;115.05;;;;;;;15.42;37.18;94294.22;4919238;28;20047;-87
2022/01/26 08:00:47;;;;;;;223.65;120.00;;;;;;;15.41;37.04;94283.78;4911448;29;20101;-86
2022/01/26 08:03:12;;;;;;;229.52;123.65;;;;;;;15.37;37.30;94294.88;4913742;28;20044;-88
2022/01/26 08:05:38;;;;;;;236.75;130.50;;;;;;;15.42;37.04;94299.69;4913914;29;20091;-86
2022/01/26 08:08:03;;;;;;;226.10;122.20;;;;;;;15.41;37.26;94300.16;4881778;28;20048;-88
2022/01/26 08:10:29;;;;;;;213.95;116.65;;;;;;;15.39;37.06;94299.84;4898293;29;20116;-86
2022/01/26 08:12:54;;;;;;;216.98;114.43;;;;;;;15.47;37.45;94292.81;4882490;29;20092;-87
2022/01/26 08:15:20;;;;;;;221.52;117.68;;;;;;;15.45;37.55;94289.81;4896958;28;20036;-85
2022/01/26 08:17:45;;;;;;;170.32;91.55;;;;;;;15.37;36.32;94285.97;4898965;29;21063;-87
2022/01/26 08:20:11;;;;;;;140.40;74.55;;;;;;;15.31;35.83;94291.31;4883815;29;20048;-87
2022/01/26 08:22:37;;;;;;;141.75;77.05;;;;;;;15.33;35.38;94288.88;4898067;29;20622;-87
2022/01/26 08:25:04;;;;;;;132.27;68.00;;;;;;;15.23;35.71;94286.72;4864207;29;20044;-89
2022/01/26 08:27:37;;;;;;;140.43;74.88;;;;;;;15.25;35.52;94285.03;4896238;29;20168;-86
2022/01/26 08:30:08;;;;;;;164.93;75.45;;;;;;;15.30;36.05;94291.78;4881937;29;20583;-85
2022/01/26 08:32:34;;;;;;;165.02;80.65;;;;;;;15.25;35.65;94287.75;4881603;29;20185;-86
2022/01/26 08:34:59;;;;;;;154.13;76.78;;;;;;;15.34;36.75;94286.91;4864420;29;20536;-86
2022/01/26 08:37:26;;;;;;;167.77;92.47;;;;;;;15.39;36.57;94280.78;4913658;29;20044;-88
2022/01/26 08:39:51;;;;;;;184.15;97.68;;;;;;;15.39;36.82;94276.09;4895433;29;20215;-88
2022/01/26 08:42:17;;;;;;;207.35;108.05;;;;;;;15.34;37.16;94276.03;4879992;29;20048;-87
2022/01/26 08:44:43;;;;;;;180.60;102.63;;;;;;;15.34;37.24;94287.66;4862951;29;20641;-87
2022/01/26 08:47:08;;;;;;;166.40;89.55;;;;;;;15.30;37.51;94289.06;4889044;29;20056;-86
2022/01/26 08:49:35;;;;;;;166.73;95.82;;;;;;;15.39;37.52;94284.25;4866629;29;20457;-87
2022/01/26 08:52:00;;;;;;;167.75;91.90;;;;;;;15.39;37.40;94286.22;4881450;29;20188;-87
2022/01/26 08:54:26;;;;;;;161.73;87.22;;;;;;;15.46;37.22;94274.97;4892614;28;20047;-87
2022/01/26 08:56:52;;;;;;;161.43;88.97;;;;;;;15.42;37.36;94277.13;4895166;29;20276;-85
2022/01/26 08:59:19;;;;;;;145.48;81.25;;;;;;;15.53;37.59;94269.16;4896607;28;20054;-87
2022/01/26 09:01:44;;;;;;;147.73;84.80;;;;;;;15.48;37.45;94274.50;4904225;29;20523;-88
2022/01/26 09:04:09;;;;;;;152.82;88.68;;;;;;;15.48;37.52;94263.59;4905122;28;20104;-86
2022/01/26 09:06:39;;;;;;;181.20;94.35;;;;;;;15.44;37.81;94267.25;4891655;29;20460;-88
2022/01/26 09:09:07;;;;;;;167.43;91.95;;;;;;;15.55;37.58;94271.41;4901387;29;20048;-87
2022/01/26 09:11:35;;;;;;;172.07;93.63;;;;;;;15.52;37.94;94270.38;4913000;29;20122;-85
2022/01/26 09:14:07;;;;;;;173.00;95.22;;;;;;;15.51;37.92;94268.88;4896860;29;20119;-88
2022/01/26 09:16:33;;;;;;;162.25;92.70;;;;;;;15.57;37.55;94277.16;4916278;29;20098;-87
2022/01/26 09:19:05;;;;;;;167.60;89.38;;;;;;;15.55;37.85;94279.59;4880204;29;20044;-87
2022/01/26 09:21:30;;;;;;;187.68;92.05;;;;;;;15.55;38.29;94287.75;4884400;29;20131;-86
2022/01/26 09:23:56;;;;;;;170.35;93.13;;;;;;;15.56;38.22;94286.56;4901945;28;20568;-87
2022/01/26 09:26:21;;;;;;;203.02;98.45;;;;;;;15.55;38.06;94288.50;4879984;29;20056;-87
2022/01/26 09:28:47;;;;;;;180.38;88.65;;;;;;;15.54;37.84;94280.81;4879515;29;20025;-87
2022/01/26 09:31:13;;;;;;;174.73;89.95;;;;;;;15.57;38.01;94279.91;4895214;28;20465;-87
2022/01/26 09:33:38;;;;;;;160.15;87.90;;;;;;;15.53;37.83;94279.31;4899325;29;20663;-88
2022/01/26 09:36:04;;;;;;;192.50;91.05;;;;;;;15.52;38.18;94273.09;4900561;28;20059;-89
2022/01/26 09:38:29;;;;;;;173.63;86.70;;;;;;;15.52;38.05;94277.78;4885353;29;20424;-89
2022/01/26 09:40:55;;;;;;;157.15;82.63;;;;;;;15.54;38.03;94275.34;4908728;29;20100;-89
2022/01/26 09:43:22;;;;;;;192.05;84.43;;;;;;;15.56;38.21;94289.28;4891350;28;20127;-90
2022/01/26 09:45:48;;;;;;;181.68;82.18;;;;;;;15.54;38.20;94278.06;4902992;29;20047;-90
2022/01/26 09:48:17;;;;;;;163.00;80.65;;;;;;;15.60;38.37;94285.13;4896780;29;20051;-89
2022/01/26 09:50:43;;;;;;;146.52;78.18;;;;;;;15.57;38.11;94282.63;4898442;29;20048;-90
2022/01/26 09:53:10;;;;;;;154.88;74.20;;;;;;;15.59;38.20;94282.91;4880822;29;20064;-89
2022/01/26 09:55:40;;;;;;;144.50;75.88;;;;;;;15.60;38.20;94274.22;4899829;29;20107;-89
2022/01/26 09:58:06;;;;;;;149.10;75.05;;;;;;;15.58;38.38;94278.69;4907181;28;20055;-89
2022/01/26 10:00:35;;;;;;;181.20;97.30;;;;;;;15.58;38.57;94279.44;4915540;29;20048;-89
2022/01/26 10:03:01;;;;;;;207.40;107.13;;;;;;;15.61;38.09;94285.88;4890950;29;20496;-89
2022/01/26 10:05:44;;;;;;;221.38;123.45;;;;;;;15.60;38.42;94282.41;4913174;29;20071;-88
2022/01/26 10:16:05;;;;;;;234.48;142.82;;;;;;;15.58;38.77;94263.06;4905194;29;20046;-89
2022/01/26 10:18:31;;;;;;;225.02;136.90;;;;;;;15.65;38.37;94267.38;4911347;28;20471;-89
2022/01/26 10:20:58;;;;;;;223.13;135.38;;;;;;;15.60;38.37;94266.06;4891128;29;20152;-88
2022/01/26 10:23:28;;;;;;;235.20;142.43;;;;;;;15.62;38.45;94265.59;4879412;29;20548;-89
2022/01/26 10:26:12;;;;;;;242.63;143.45;;;;;;;15.62;38.70;94260.13;4876422;29;20036;-89
2022/01/26 10:28:44;;;;;;;236.07;144.70;;;;;;;15.61;38.67;94269.53;4882621;29;20049;-88
2022/01/26 10:31:14;;;;;;;237.27;143.35;;;;;;;15.63;38.65;94273.28;4901643;28;20032;-88
2022/01/26 10:33:40;;;;;;;223.75;138.57;;;;;;;15.65;38.40;94265.41;4914456;29;20507;-86
2022/01/26 10:36:05;;;;;;;242.90;148.20;;;;;;;15.65;38.77;94264.66;4896264;29;20040;-87
2022/01/26 10:38:32;;;;;;;236.73;151.38;;;;;;;15.69;38.64;94265.97;4897645;29;20041;-86
2022/01/26 10:41:00;;;;;;;238.98;153.65;;;;;;;15.69;38.68;94268.69;4890332;29;20040;-87
2022/01/26 10:43:29;;;;;;;223.32;148.80;;;;;;;15.69;38.97;94257.78;4898284;28;20507;-87
2022/01/26 10:51:21;;;;;;;222.45;142.98;;;;;;;15.71;38.56;94266.25;4897665;29;20047;-88
2022/01/26 10:53:48;;;;;;;231.75;146.27;;;;;;;15.69;38.84;94263.22;4901350;28;20096;-86
2022/01/26 10:56:13;;;;;;;264.63;143.53;;;;;;;15.69;38.95;94268.69;4894683;28;20059;-86
2022/01/26 10:58:40;;;;;;;239.38;137.90;;;;;;;15.69;38.98;94268.69;4895045;29;20048;-88
2022/01/26 11:01:07;;;;;;;228.02;133.95;;;;;;;15.71;39.18;94249.13;4893791;28;20555;-86
2022/01/26 11:03:33;;;;;;;226.68;137.50;;;;;;;15.71;38.97;94249.88;4894820;29;20058;-87
2022/01/26 11:06:00;;;;;;;217.25;137.35;;;;;;;15.81;40.19;94242.34;4899968;29;20058;-87
2022/01/26 11:08:25;;;;;;;226.05;134.98;;;;;;;15.88;39.81;94233.03;4912905;28;20043;-83
2022/01/26 11:10:50;;;;;;;216.48;132.35;;;;;;;15.83;39.05;94239.13;4899118;29;20040;-85
2022/01/26 11:13:28;;;;;;;221.68;130.90;;;;;;;15.80;38.99;94240.84;4898788;28;20039;-83
2022/01/26 11:16:05;;;;;;;208.20;128.93;;;;;;;15.87;39.21;94240.44;4888695;29;20139;-86
2022/01/26 11:18:33;;;;;;;200.25;121.40;;;;;;;15.88;39.64;94235.75;4879776;29;20458;-86
2022/01/26 11:20:59;;;;;;;199.48;123.20;;;;;;;15.91;39.47;94219.19;4904518;29;20039;-86
2022/01/26 11:23:36;;;;;;;194.07;120.38;;;;;;;15.86;39.14;94219.84;4897766;28;20067;-86
2022/01/26 11:26:01;;;;;;;187.90;114.88;;;;;;;15.89;39.05;94218.91;4912595;29;20547;-86
2022/01/26 11:28:27;;;;;;;183.60;115.32;;;;;;;15.84;39.43;94222.31;4910169;29;20043;-86
2022/01/26 11:30:56;;;;;;;185.88;114.93;;;;;;;15.87;39.31;94215.16;4903866;28;20036;-86
2022/01/26 11:33:25;;;;;;;168.48;106.65;;;;;;;15.85;39.35;94212.91;4888425;29;20050;-84
2022/01/26 11:35:51;;;;;;;171.20;103.88;;;;;;;15.90;39.08;94209.50;4915220;29;20043;-87
2022/01/26 11:39:03;;;;;;;157.18;102.93;;;;;;;15.86;39.56;94202.75;4898470;28;20039;-86
2022/01/26 11:46:57;;;;;;;146.68;91.65;;;;;;;15.88;39.42;94200.31;4903688;29;20102;-85
2022/01/26 11:49:31;;;;;;;139.90;89.65;;;;;;;15.87;39.40;94196.81;4894998;29;20055;-86
2022/01/26 11:51:57;;;;;;;132.85;88.50;;;;;;;15.84;39.11;94199.75;4904879;29;20035;-86
2022/01/26 11:54:25;;;;;;;130.20;83.03;;;;;;;15.84;39.36;94186.13;4914756;28;20170;-87
2022/01/26 11:57:02;;;;;;;151.48;90.05;;;;;;;15.85;39.03;94190.34;4926208;28;20044;-87
2022/01/26 11:59:31;;;;;;;172.38;99.10;;;;;;;15.82;39.50;94186.59;4906484;28;20127;-86
2022/01/26 12:02:01;;;;;;;161.02;99.53;;;;;;;15.81;39.38;94196.00;4894818;29;20048;-86
2022/01/26 12:04:27;;;;;;;185.20;106.80;;;;;;;15.85;39.07;94196.53;4910908;29;20636;-86
2022/01/26 12:06:59;;;;;;;176.57;104.80;;;;;;;15.76;39.46;94197.44;4912778;29;20139;-86
2022/01/26 12:09:25;;;;;;;227.05;129.63;;;;;;;15.82;39.10;94204.91;4904939;29;20091;-86
2022/01/26 12:11:55;;;;;;;210.48;120.32;;;;;;;15.78;39.57;94199.69;4897213;29;20106;-85
2022/01/26 12:14:21;;;;;;;200.43;114.10;;;;;;;15.79;39.31;94200.44;4897508;29;20075;-88
2022/01/26 12:16:49;;;;;;;274.92;150.20;;;;;;;15.82;39.23;94205.66;4904822;29;20043;-86
2022/01/26 12:35:54;;;;;;;259.73;145.85;;;;;;;15.84;39.71;94188.84;4922669;28;20043;-85
2022/01/26 12:43:56;;;;;;;247.77;137.48;;;;;;;15.81;39.83;94204.16;4927032;28;20047;-84
2022/01/26 12:46:28;;;;;;;253.05;144.82;;;;;;;15.84;39.82;94192.31;4903949;28;20040;-85
2022/01/26 12:48:57;;;;;;;255.70;153.32;;;;;;;15.84;39.85;94191.56;4901524;29;20054;-85
2022/01/26 12:51:23;;;;;;;255.88;148.75;;;;;;;15.87;39.74;94198.81;4901021;28;20084;-86
2022/01/26 12:53:53;;;;;;;267.05;151.82;;;;;;;15.85;40.03;94187.63;4901140;29;20067;-88
2022/01/26 12:56:18;;;;;;;259.63;158.73;;;;;;;15.86;39.55;94198.06;4885085;28;20070;-87
2022/01/26 12:58:44;;;;;;;247.27;147.60;;;;;;;15.85;39.50;94195.78;4900582;29;20515;-85
2022/01/26 13:01:19;;;;;;;281.02;167.55;;;;;;;15.86;39.83;94191.84;4916236;28;20066;-87
2022/01/26 13:03:47;;;;;;;267.33;160.93;;;;;;;15.89;39.60;94180.00;4917098;29;20046;-84
2022/01/26 13:06:14;;;;;;;266.73;159.93;;;;;;;15.89;39.68;94185.44;4900317;29;20570;-85
2022/01/26 13:08:41;;;;;;;259.75;151.63;;;;;;;15.87;39.57;94172.28;4917886;29;20047;-86
2022/01/26 13:11:06;;;;;;;265.05;155.88;;;;;;;15.87;39.85;94171.53;4917658;28;20060;-85
2022/01/26 13:13:38;;;;;;;245.48;148.20;;;;;;;15.88;39.75;94175.75;4944380;28;20048;-85
2022/01/26 13:16:19;;;;;;;270.60;160.27;;;;;;;15.88;39.48;94175.75;4932801;28;20051;-85
2022/01/26 13:22:02;;;;;;;270.60;155.05;;;;;;;15.86;39.98;94168.06;4904730;28;20047;-86
2022/01/26 13:27:15;;;;;;;255.02;146.18;;;;;;;15.90;40.03;94170.59;4903521;29;20066;-85